SLCO2: Lee Creek At Short, OK

                                SHEF ID:       SLCO2     Lee Creek near Short, OK
STATION TYPE: Stream Gauge

PRECIP STAGE RIV-FLOW BAT-LOAD
in ft cfs volt
Ccp-Rev Ccp-Rev Ccp-Rev Ccp-Rev
(America/Chicago)
04/24 00:00 0.00 2.64 51 12.64
04/24 01:00 0.00 2.64 51 12.64
04/24 02:00 0.00 2.63 50 12.63
04/24 03:00 0.00 2.63 50 12.63
04/24 04:00 0.00 2.63 50 12.63
04/24 05:00 0.74 2.68 56 12.63
04/24 06:00 0.64 2.73 61 12.63
04/24 07:00 0.15 2.77 66 12.63
04/24 08:00 0.03 2.89 81 12.63
04/24 09:00 0.05 3.31 152 12.63
04/24 10:00 0.00 3.49 190 12.67
04/24 11:00 0.01 3.63 224 12.69
04/24 12:00 0.00 3.98 324 12.94
04/24 13:00 0.00 4.76 654 12.99
04/24 14:00 0.00 4.80 676 12.93
04/24 15:00 0.00 4.71 628 13.01
04/24 16:00 0.00 4.75 649 12.80
04/24 17:00 0.00 5.01 796 12.72
04/24 18:00 0.00 5.26 947 12.65
04/24 19:00 0.01 5.26 947 12.63
04/24 20:00 0.01 5.20 910 12.61
04/24 21:00 0.00 5.09 845 12.61
04/24 22:00 0.00 4.99 784 12.61
04/24 23:00 0.00 4.89 726 12.61
Data processed at Sat 25Apr2026 04:41 GMT

NOTICE: If you are parsing this page

Please convert to using our Data API. Starting early 2026 we will be migrating to: https://water.usace.army.mil with modern pages rendered in JavaScript. When this migration completes you will no longer be able to scrape this page! CWMSDataAPI (CDA)

Timeseries IDs (TSIDs)

TSIDs used from left to right in the data table
SHOR.Precip-Inc.Total.1Hour.1Hour.Ccp-Rev
SHOR.Stage.Inst.1Hour.0.Ccp-Rev
SHOR.Flow.Inst.1Hour.0.Ccp-Rev
SHOR.Volt-Battery Load.Inst.1Hour.0.Ccp-Rev

                            

All information presented herein is the property of the government of the United States of America and may be revised or deleted at any time without prior notice. Dissemination of this information without the expressed written consent of the Public Affairs Office, Tulsa District U.S. Army Corps of Engineers is strictly prohibited. These data are gathered electronically and, as presented, have NOT undergone any form of quality control. These data are NOT guaranteed to be valid or correct.